createdAt,value
2016-05-31T00:00:40.906Z,0
2016-05-31T00:01:43.736Z,0
2016-05-31T00:02:40.958Z,0
2016-05-31T00:03:41.133Z,0
2016-05-31T00:04:40.713Z,0
2016-05-31T00:05:43.685Z,0
2016-05-31T00:06:40.781Z,0
2016-05-31T00:07:40.612Z,0
2016-05-31T00:08:43.505Z,0
2016-05-31T00:09:40.680Z,0
2016-05-31T00:10:52.435Z,0
2016-05-31T00:11:43.763Z,0
2016-05-31T00:12:40.532Z,0
2016-05-31T00:13:40.456Z,0
2016-05-31T00:14:43.271Z,0
2016-05-31T00:15:46.371Z,0
2016-05-31T00:16:40.308Z,0
2016-05-31T00:17:43.529Z,0
2016-05-31T00:18:40.047Z,0
2016-05-31T00:19:40.145Z,0
2016-05-31T00:20:40.116Z,0
2016-05-31T00:21:43.103Z,0
2016-05-31T00:22:39.948Z,0
2016-05-31T00:23:40.295Z,0
2016-05-31T00:24:39.953Z,0
2016-05-31T00:25:39.879Z,0
2016-05-31T00:26:42.850Z,0
2016-05-31T00:27:39.666Z,0
2016-05-31T00:28:39.589Z,0
2016-05-31T00:29:39.906Z,0
2016-05-31T00:30:39.674Z,0
2016-05-31T00:31:42.598Z,0
2016-05-31T00:32:39.382Z,0
2016-05-31T00:33:39.369Z,0
2016-05-31T00:34:39.013Z,0
2016-05-31T00:35:39.516Z,0
2016-05-31T00:36:39.565Z,0
2016-05-31T00:37:42.474Z,0
2016-05-31T00:38:42.460Z,0
2016-05-31T00:39:39.292Z,0
2016-05-31T00:40:42.201Z,0
2016-05-31T00:41:38.999Z,0
2016-05-31T00:42:42.299Z,0
2016-05-31T00:43:41.912Z,0
2016-05-31T00:44:38.993Z,0
2016-05-31T00:45:38.932Z,0
2016-05-31T00:46:44.951Z,0
2016-05-31T00:47:41.735Z,0
2016-05-31T00:48:41.973Z,0
2016-05-31T00:49:41.757Z,0
2016-05-31T00:50:41.774Z,0
2016-05-31T00:51:38.683Z,0
2016-05-31T00:52:42.468Z,0
2016-05-31T00:53:41.642Z,0
2016-05-31T00:54:38.582Z,0
2016-05-31T00:55:38.381Z,0
2016-05-31T00:56:44.728Z,0
2016-05-31T00:57:38.434Z,0
2016-05-31T00:58:41.358Z,0
2016-05-31T00:59:38.345Z,0
2016-05-31T01:00:38.286Z,0
2016-05-31T01:01:38.600Z,0
2016-05-31T01:02:40.869Z,0
2016-05-31T01:03:37.981Z,0
2016-05-31T01:04:38.078Z,0
2016-05-31T01:05:37.908Z,0
2016-05-31T01:06:37.974Z,0
2016-05-31T01:07:44.930Z,0
2016-05-31T01:08:38.869Z,0
2016-05-31T01:09:37.888Z,0
2016-05-31T01:10:37.969Z,0
2016-05-31T01:11:40.580Z,0
2016-05-31T01:12:37.708Z,0
2016-05-31T01:13:40.649Z,0
2016-05-31T01:14:40.604Z,0
2016-05-31T01:15:43.310Z,0
2016-05-31T01:16:37.563Z,0
2016-05-31T01:17:40.456Z,0
2016-05-31T01:18:40.428Z,0
2016-05-31T01:19:37.352Z,0
2016-05-31T01:20:37.308Z,0
2016-05-31T01:21:43.592Z,0
2016-05-31T01:22:37.110Z,0
2016-05-31T01:23:36.894Z,0
2016-05-31T01:24:46.241Z,0
2016-05-31T01:25:40.103Z,0
2016-05-31T01:26:37.200Z,0
2016-05-31T01:27:36.983Z,0
2016-05-31T01:28:37.126Z,0
2016-05-31T01:29:42.926Z,0
2016-05-31T01:30:46.039Z,0
2016-05-31T01:31:43.119Z,0
2016-05-31T01:32:39.606Z,0
2016-05-31T01:33:39.561Z,0
2016-05-31T01:34:36.878Z,0
2016-05-31T01:35:40.020Z,0
2016-05-31T01:36:39.882Z,0
2016-05-31T01:37:36.558Z,0
2016-05-31T01:38:36.419Z,0
2016-05-31T01:39:36.469Z,0
2016-05-31T01:40:39.502Z,0
2016-05-31T01:41:36.396Z,0
2016-05-31T01:42:39.492Z,0
2016-05-31T01:43:36.682Z,0
2016-05-31T01:44:39.294Z,0
2016-05-31T01:45:35.969Z,0
2016-05-31T01:46:36.299Z,0
2016-05-31T01:47:48.084Z,0
2016-05-31T01:48:36.665Z,0
2016-05-31T01:49:39.168Z,0
2016-05-31T01:50:41.623Z,0
2016-05-31T01:51:39.282Z,0
2016-05-31T01:52:39.066Z,0
2016-05-31T01:53:41.615Z,0
2016-05-31T01:54:35.712Z,0
2016-05-31T01:55:35.668Z,0
2016-05-31T01:56:44.531Z,0
2016-05-31T01:57:38.579Z,0
2016-05-31T01:58:38.723Z,0
2016-05-31T01:59:35.350Z,0
2016-05-31T02:00:35.478Z,0
2016-05-31T02:01:38.590Z,0
2016-05-31T02:02:35.609Z,0
2016-05-31T02:03:35.299Z,0
2016-05-31T02:04:40.958Z,0
2016-05-31T02:05:35.429Z,0
2016-05-31T02:06:35.011Z,0
2016-05-31T02:07:38.591Z,0
2016-05-31T02:08:38.155Z,0
2016-05-31T02:09:35.018Z,0
2016-05-31T02:10:37.989Z,0
2016-05-31T02:11:34.633Z,0
2016-05-31T02:12:34.870Z,0
2016-05-31T02:13:34.841Z,0
2016-05-31T02:14:34.641Z,0
2016-05-31T02:15:34.597Z,0
2016-05-31T02:16:34.677Z,0
2016-05-31T02:17:37.727Z,0
2016-05-31T02:18:37.636Z,0
2016-05-31T02:19:34.561Z,0
2016-05-31T02:20:34.532Z,0
2016-05-31T02:21:37.676Z,0
2016-05-31T02:22:40.271Z,0
2016-05-31T02:23:43.399Z,0
2016-05-31T02:24:34.340Z,0
2016-05-31T02:25:37.296Z,0
2016-05-31T02:26:37.424Z,0
2016-05-31T02:27:37.035Z,0
2016-05-31T02:28:37.148Z,0
2016-05-31T02:29:33.932Z,0
2016-05-31T02:30:34.575Z,0
2016-05-31T02:31:37.234Z,0
2016-05-31T02:32:40.283Z,0
2016-05-31T02:33:37.114Z,0
2016-05-31T02:34:33.851Z,0
2016-05-31T02:35:36.651Z,0
2016-05-31T02:36:36.856Z,0
2016-05-31T02:37:33.734Z,0
2016-05-31T02:38:37.049Z,0
2016-05-31T02:39:36.396Z,0
2016-05-31T02:40:36.461Z,0
2016-05-31T02:41:36.541Z,0
2016-05-31T02:42:33.325Z,0
2016-05-31T02:43:33.438Z,0
2016-05-31T02:44:39.410Z,0
2016-05-31T02:45:33.349Z,0
2016-05-31T02:46:36.383Z,0
2016-05-31T02:47:33.823Z,0
2016-05-31T02:48:42.623Z,0
2016-05-31T02:49:36.141Z,0
2016-05-31T02:50:35.957Z,0
2016-05-31T02:51:36.069Z,0
2016-05-31T02:52:36.040Z,0
2016-05-31T02:53:32.980Z,0
2016-05-31T02:54:32.904Z,0
2016-05-31T02:55:32.860Z,0
2016-05-31T02:56:32.801Z,0
2016-05-31T02:57:35.882Z,0
2016-05-31T02:58:32.728Z,0
2016-05-31T02:59:32.684Z,0
2016-05-31T03:00:32.623Z,0
2016-05-31T03:01:32.581Z,0
2016-05-31T03:02:35.536Z,0
2016-05-31T03:03:32.492Z,0
2016-05-31T03:04:32.353Z,0
2016-05-31T03:05:32.247Z,0
2016-05-31T03:06:32.531Z,0
2016-05-31T03:07:32.517Z,0
2016-05-31T03:08:35.693Z,0
2016-05-31T03:09:32.055Z,0
2016-05-31T03:10:35.183Z,0
2016-05-31T03:11:31.950Z,0
2016-05-31T03:12:38.343Z,0
2016-05-31T03:13:32.019Z,0
2016-05-31T03:14:38.021Z,0
2016-05-31T03:15:40.805Z,0
2016-05-31T03:16:41.136Z,0
2016-05-31T03:17:34.857Z,0
2016-05-31T03:18:35.204Z,0
2016-05-31T03:19:34.972Z,0
2016-05-31T03:20:32.396Z,0
2016-05-31T03:21:40.712Z,0
2016-05-31T03:22:37.465Z,0
2016-05-31T03:23:31.718Z,0
2016-05-31T03:24:40.407Z,0
2016-05-31T03:25:34.285Z,0
2016-05-31T03:26:31.382Z,0
2016-05-31T03:27:37.243Z,0
2016-05-31T03:28:34.167Z,0
2016-05-31T03:29:37.359Z,0
2016-05-31T03:30:31.079Z,0
2016-05-31T03:31:31.223Z,0
2016-05-31T03:32:34.382Z,0
2016-05-31T03:33:33.884Z,0
2016-05-31T03:34:31.356Z,0
2016-05-31T03:35:37.031Z,0
2016-05-31T03:36:30.925Z,0
2016-05-31T03:37:31.833Z,0
2016-05-31T03:38:34.055Z,5
2016-05-31T03:39:33.823Z,5
2016-05-31T03:40:30.747Z,5
2016-05-31T03:41:30.688Z,5
2016-05-31T03:42:30.846Z,5
2016-05-31T03:43:30.646Z,5
2016-05-31T03:44:33.774Z,5
2016-05-31T03:45:30.526Z,5
2016-05-31T03:46:36.686Z,5
2016-05-31T03:47:30.266Z,5
2016-05-31T03:48:30.346Z,5
2016-05-31T03:49:30.538Z,5
2016-05-31T03:50:33.477Z,5
2016-05-31T03:51:33.229Z,5
2016-05-31T03:52:36.389Z,5
2016-05-31T03:53:36.313Z,5
2016-05-31T03:54:33.098Z,5
2016-05-31T03:55:32.882Z,5
2016-05-31T03:56:29.993Z,5
2016-05-31T03:57:29.965Z,5
2016-05-31T03:58:36.124Z,10
2016-05-31T03:59:29.845Z,10
2016-05-31T04:00:32.864Z,10
2016-05-31T04:01:32.772Z,10
2016-05-31T04:02:29.760Z,10
2016-05-31T04:03:38.528Z,10
2016-05-31T04:04:38.639Z,10
2016-05-31T04:05:32.596Z,10
2016-05-31T04:06:32.536Z,10
2016-05-31T04:07:33.022Z,10
2016-05-31T04:08:29.588Z,10
2016-05-31T04:09:32.435Z,10
2016-05-31T04:10:29.203Z,15
2016-05-31T04:11:29.127Z,15
2016-05-31T04:12:32.272Z,15
2016-05-31T04:13:32.211Z,15
2016-05-31T04:14:38.041Z,15
2016-05-31T04:15:35.325Z,15
2016-05-31T04:16:32.125Z,15
2016-05-31T04:17:31.691Z,15
2016-05-31T04:18:28.974Z,15
2016-05-31T04:19:31.930Z,15
2016-05-31T04:20:29.089Z,15
2016-05-31T04:21:31.826Z,15
2016-05-31T04:22:35.469Z,15
2016-05-31T04:23:28.785Z,15
2016-05-31T04:24:31.694Z,15
2016-05-31T04:25:34.837Z,20
2016-05-31T04:26:29.105Z,20
2016-05-31T04:27:34.577Z,20
2016-05-31T04:28:28.564Z,20
2016-05-31T04:29:31.159Z,20
2016-05-31T04:30:31.397Z,20
2016-05-31T04:31:31.604Z,25
2016-05-31T04:32:31.184Z,25
2016-05-31T04:33:34.311Z,25
2016-05-31T04:34:28.440Z,25
2016-05-31T04:35:28.161Z,25
2016-05-31T04:36:27.975Z,25
2016-05-31T04:37:27.917Z,25
2016-05-31T04:38:37.075Z,25
2016-05-31T04:39:33.844Z,25
2016-05-31T04:40:27.971Z,25
2016-05-31T04:41:40.100Z,25
2016-05-31T04:42:36.852Z,25
2016-05-31T04:43:27.791Z,25
2016-05-31T04:44:27.591Z,25
2016-05-31T04:45:33.781Z,25
2016-05-31T04:46:30.503Z,25
2016-05-31T04:47:33.599Z,25
2016-05-31T04:48:27.555Z,25
2016-05-31T04:49:33.714Z,25
2016-05-31T04:50:33.357Z,25
2016-05-31T04:51:30.626Z,25
2016-05-31T04:52:30.941Z,25
2016-05-31T04:53:31.038Z,25
2016-05-31T04:54:30.305Z,25
2016-05-31T04:55:33.277Z,30
2016-05-31T04:56:33.607Z,30
2016-05-31T04:57:30.173Z,30
2016-05-31T04:58:30.191Z,30
2016-05-31T04:59:29.897Z,30
2016-05-31T05:00:30.010Z,30
2016-05-31T05:01:33.137Z,35
2016-05-31T05:02:27.108Z,35
2016-05-31T05:03:30.034Z,35
2016-05-31T05:04:32.661Z,35
2016-05-31T05:05:32.820Z,35
2016-05-31T05:06:27.119Z,35
2016-05-31T05:07:32.560Z,35
2016-05-31T05:08:33.093Z,35
2016-05-31T05:09:36.314Z,35
2016-05-31T05:10:29.520Z,35
2016-05-31T05:11:29.319Z,35
2016-05-31T05:12:26.854Z,35
2016-05-31T05:13:26.700Z,35
2016-05-31T05:14:26.344Z,40
2016-05-31T05:15:29.487Z,40
2016-05-31T05:16:26.224Z,40
2016-05-31T05:17:29.196Z,40
2016-05-31T05:18:28.994Z,45
2016-05-31T05:19:29.092Z,45
2016-05-31T05:20:32.125Z,50
2016-05-31T05:21:25.847Z,50
2016-05-31T05:22:29.177Z,55
2016-05-31T05:23:27.149Z,55
2016-05-31T05:24:26.105Z,55
2016-05-31T05:25:25.810Z,60
2016-05-31T05:26:25.673Z,55
2016-05-31T05:27:26.129Z,55
2016-05-31T05:28:28.726Z,55
2016-05-31T05:29:35.071Z,55
2016-05-31T05:30:25.590Z,55
2016-05-31T05:31:25.374Z,55
2016-05-31T05:32:28.501Z,60
2016-05-31T05:33:28.301Z,60
2016-05-31T05:34:28.507Z,60
2016-05-31T05:35:31.557Z,60
2016-05-31T05:36:28.512Z,60
2016-05-31T05:37:28.312Z,60
2016-05-31T05:38:47.173Z,55
2016-05-31T05:39:25.176Z,55
2016-05-31T05:40:24.961Z,60
2016-05-31T05:41:30.931Z,60
2016-05-31T05:42:24.873Z,60
2016-05-31T05:43:25.234Z,60
2016-05-31T05:44:31.019Z,60
2016-05-31T05:45:30.817Z,60
2016-05-31T05:46:27.524Z,60
2016-05-31T05:47:27.652Z,60
2016-05-31T05:48:24.982Z,60
2016-05-31T05:49:27.547Z,60
2016-05-31T05:50:27.862Z,65
2016-05-31T05:51:28.350Z,65
2016-05-31T05:52:30.665Z,65
2016-05-31T05:53:29.682Z,60
2016-05-31T05:54:27.874Z,55
2016-05-31T05:55:30.532Z,55
2016-05-31T05:56:27.582Z,50
2016-05-31T05:57:27.187Z,50
2016-05-31T05:58:27.342Z,50
2016-05-31T05:59:30.167Z,50
2016-05-31T06:00:24.696Z,50
2016-05-31T06:01:26.960Z,55
2016-05-31T06:02:24.234Z,55
2016-05-31T06:03:24.402Z,55
2016-05-31T06:04:24.008Z,60
2016-05-31T06:05:27.161Z,65
2016-05-31T06:06:24.095Z,70
2016-05-31T06:07:27.449Z,70
2016-05-31T06:08:24.299Z,65
2016-05-31T06:09:30.009Z,65
2016-05-31T06:10:24.109Z,60
2016-05-31T06:11:29.896Z,60
2016-05-31T06:12:23.682Z,55
2016-05-31T06:13:26.763Z,55
2016-05-31T06:14:26.753Z,50
2016-05-31T06:15:26.694Z,50
2016-05-31T06:16:23.666Z,55
2016-05-31T06:17:23.467Z,60
2016-05-31T06:18:26.579Z,60
2016-05-31T06:19:32.395Z,65
2016-05-31T06:20:26.304Z,65
2016-05-31T06:21:26.416Z,60
2016-05-31T06:22:26.577Z,60
2016-05-31T06:23:27.454Z,60
2016-05-31T06:24:22.971Z,60
2016-05-31T06:25:23.319Z,60
2016-05-31T06:26:29.196Z,40
2016-05-31T06:27:26.168Z,45
2016-05-31T06:28:23.092Z,60
2016-05-31T06:29:22.891Z,55
2016-05-31T06:30:29.238Z,55
2016-05-31T06:31:22.975Z,35
2016-05-31T06:32:31.931Z,40
2016-05-31T06:33:25.730Z,55
2016-05-31T06:34:25.687Z,45
2016-05-31T06:35:31.782Z,55
2016-05-31T06:36:25.598Z,55
2016-05-31T06:37:25.991Z,60
2016-05-31T06:38:24.291Z,45
2016-05-31T06:39:22.559Z,45
2016-05-31T06:40:25.561Z,45
2016-05-31T06:41:25.486Z,40
2016-05-31T06:42:25.458Z,45
2016-05-31T06:43:28.414Z,50
2016-05-31T06:44:28.213Z,60
2016-05-31T06:45:25.309Z,60
2016-05-31T06:46:22.265Z,60
2016-05-31T06:47:22.206Z,65
2016-05-31T06:48:22.161Z,65
2016-05-31T06:49:22.133Z,65
2016-05-31T06:50:22.245Z,55
2016-05-31T06:51:25.060Z,55
2016-05-31T06:52:25.000Z,50
2016-05-31T06:53:25.143Z,65
2016-05-31T06:54:21.880Z,60
2016-05-31T06:55:21.680Z,55
2016-05-31T06:56:21.652Z,60
2016-05-31T06:57:24.982Z,55
2016-05-31T06:58:27.954Z,55
2016-05-31T06:59:21.926Z,65
2016-05-31T07:00:21.554Z,65
2016-05-31T07:01:24.618Z,65
2016-05-31T07:02:24.387Z,70
2016-05-31T07:03:24.826Z,80
2016-05-31T07:04:24.454Z,80
2016-05-31T07:05:24.317Z,80
2016-05-31T07:06:24.350Z,90
2016-05-31T07:07:24.337Z,100
2016-05-31T07:08:24.684Z,115
2016-05-31T07:09:27.234Z,120
2016-05-31T07:10:24.017Z,125
2016-05-31T07:11:33.004Z,135
2016-05-31T07:12:20.975Z,145
2016-05-31T07:13:31.682Z,165
2016-05-31T07:14:26.981Z,150
2016-05-31T07:15:20.937Z,140
2016-05-31T07:16:29.955Z,140
2016-05-31T07:17:20.833Z,140
2016-05-31T07:18:23.866Z,140
2016-05-31T07:19:23.761Z,135
2016-05-31T07:20:20.841Z,125
2016-05-31T07:21:26.750Z,130
2016-05-31T07:22:23.721Z,125
2016-05-31T07:23:28.116Z,125
2016-05-31T07:24:26.805Z,120
2016-05-31T07:25:23.823Z,115
2016-05-31T07:26:26.560Z,120
2016-05-31T07:27:20.454Z,125
2016-05-31T07:28:20.660Z,140
2016-05-31T07:29:23.256Z,115
2016-05-31T07:30:23.290Z,120
2016-05-31T07:31:23.262Z,130
2016-05-31T07:32:23.186Z,125
2016-05-31T07:33:20.532Z,135
2016-05-31T07:34:23.285Z,140
2016-05-31T07:35:20.131Z,140
2016-05-31T07:36:19.978Z,135
2016-05-31T07:37:23.106Z,140
2016-05-31T07:38:23.874Z,145
2016-05-31T07:39:20.267Z,145
2016-05-31T07:40:19.864Z,140
2016-05-31T07:41:22.820Z,140
2016-05-31T07:42:19.759Z,140
2016-05-31T07:43:19.669Z,140
2016-05-31T07:44:19.639Z,135
2016-05-31T07:45:19.737Z,145
2016-05-31T07:46:19.724Z,145
2016-05-31T07:47:19.523Z,145
2016-05-31T07:48:19.619Z,135
2016-05-31T07:49:25.528Z,125
2016-05-31T07:50:19.359Z,120
2016-05-31T07:51:19.534Z,115
2016-05-31T07:52:19.224Z,115
2016-05-31T07:53:22.149Z,110
2016-05-31T07:54:18.869Z,105
2016-05-31T07:55:25.608Z,105
2016-05-31T07:56:19.313Z,115
2016-05-31T07:57:19.253Z,120
2016-05-31T07:58:19.005Z,120
2016-05-31T07:59:18.962Z,120
2016-05-31T08:00:18.933Z,115
2016-05-31T08:01:18.858Z,120
2016-05-31T08:02:22.032Z,115
2016-05-31T08:03:21.784Z,110
2016-05-31T08:04:22.022Z,110
2016-05-31T08:05:24.697Z,115
2016-05-31T08:06:18.777Z,100
2016-05-31T08:07:21.639Z,125
2016-05-31T08:08:18.907Z,100
2016-05-31T08:09:18.519Z,120
2016-05-31T08:10:21.460Z,135
2016-05-31T08:11:18.276Z,140
2016-05-31T08:12:18.356Z,125
2016-05-31T08:13:18.186Z,125
2016-05-31T08:14:18.471Z,115
2016-05-31T08:15:18.255Z,110
2016-05-31T08:16:20.867Z,100
2016-05-31T08:17:18.275Z,115
2016-05-31T08:18:18.231Z,115
2016-05-31T08:19:17.983Z,105
2016-05-31T08:20:18.033Z,100
2016-05-31T08:21:17.817Z,100
2016-05-31T08:22:18.445Z,120
2016-05-31T08:23:17.572Z,120
2016-05-31T08:24:17.716Z,130
2016-05-31T08:25:30.000Z,135
2016-05-31T08:26:17.816Z,145
2016-05-31T08:27:17.974Z,160
2016-05-31T08:28:17.555Z,160
2016-05-31T08:29:17.635Z,165
2016-05-31T08:30:20.671Z,175
2016-05-31T08:31:17.719Z,175
2016-05-31T08:32:21.019Z,175
2016-05-31T08:33:18.021Z,175
2016-05-31T08:34:17.306Z,175
2016-05-31T08:35:17.199Z,155
2016-05-31T08:36:17.342Z,135
2016-05-31T08:37:17.080Z,150
2016-05-31T08:38:24.410Z,160
2016-05-31T08:39:20.679Z,160
2016-05-31T08:40:19.978Z,155
2016-05-31T08:41:17.356Z,160
2016-05-31T08:42:20.124Z,160
2016-05-31T08:43:23.220Z,135
2016-05-31T08:44:23.129Z,120
2016-05-31T08:45:16.929Z,110
2016-05-31T08:46:17.025Z,90
2016-05-31T08:47:19.856Z,95
2016-05-31T08:48:19.781Z,140
2016-05-31T08:49:19.706Z,160
2016-05-31T08:50:25.692Z,170
2016-05-31T08:51:16.648Z,170
2016-05-31T08:52:19.525Z,170
2016-05-31T08:53:17.513Z,175
2016-05-31T08:54:16.485Z,175
2016-05-31T08:55:16.519Z,165
2016-05-31T08:56:16.458Z,155
2016-05-31T08:57:16.274Z,160
2016-05-31T08:58:16.246Z,150
2016-05-31T08:59:16.248Z,150
2016-05-31T09:00:16.297Z,150
2016-05-31T09:01:19.191Z,180
2016-05-31T09:02:16.756Z,170
2016-05-31T09:03:16.102Z,165
2016-05-31T09:04:19.090Z,160
2016-05-31T09:05:15.998Z,165
2016-05-31T09:06:16.079Z,170
2016-05-31T09:07:16.129Z,190
2016-05-31T09:08:16.616Z,195
2016-05-31T09:09:15.900Z,190
2016-05-31T09:10:18.996Z,190
2016-05-31T09:11:18.780Z,190
2016-05-31T09:12:18.783Z,190
2016-05-31T09:13:15.489Z,195
2016-05-31T09:14:18.695Z,200
2016-05-31T09:15:18.556Z,200
2016-05-31T09:16:15.512Z,195
2016-05-31T09:17:16.124Z,185
2016-05-31T09:18:15.487Z,190
2016-05-31T09:19:15.380Z,200
2016-05-31T09:20:15.586Z,195
2016-05-31T09:21:15.307Z,195
2016-05-31T09:22:15.092Z,205
2016-05-31T09:23:18.905Z,200
2016-05-31T09:24:21.175Z,200
2016-05-31T09:25:21.146Z,195
2016-05-31T09:26:18.117Z,195
2016-05-31T09:27:21.166Z,185
2016-05-31T09:28:21.061Z,180
2016-05-31T09:29:20.938Z,180
2016-05-31T09:30:35.160Z,190
2016-05-31T09:31:14.927Z,205
2016-05-31T09:32:14.666Z,200
2016-05-31T09:33:23.979Z,210
2016-05-31T09:34:17.718Z,210
2016-05-31T09:35:18.001Z,200
2016-05-31T09:36:20.550Z,205
2016-05-31T09:37:14.444Z,190
2016-05-31T09:38:17.713Z,205
2016-05-31T09:39:18.059Z,200
2016-05-31T09:40:14.359Z,205
2016-05-31T09:41:14.298Z,205
2016-05-31T09:42:15.192Z,200
2016-05-31T09:43:14.741Z,190
2016-05-31T09:44:14.650Z,205
2016-05-31T09:45:14.231Z,205
2016-05-31T09:46:17.265Z,200
2016-05-31T09:47:14.142Z,200
2016-05-31T09:48:17.223Z,215
2016-05-31T09:49:13.914Z,220
2016-05-31T09:50:14.057Z,225
2016-05-31T09:51:13.981Z,225
2016-05-31T09:52:13.844Z,225
2016-05-31T09:53:15.299Z,225
2016-05-31T09:54:17.630Z,225
2016-05-31T09:55:14.180Z,220
2016-05-31T09:56:14.245Z,215
2016-05-31T09:57:16.794Z,215
2016-05-31T09:58:13.719Z,205
2016-05-31T09:59:25.862Z,195
2016-05-31T10:00:19.819Z,205
2016-05-31T10:01:13.743Z,215
2016-05-31T10:02:14.058Z,225
2016-05-31T10:03:13.373Z,225
2016-05-31T10:04:19.688Z,230
2016-05-31T10:05:13.612Z,230
2016-05-31T10:06:14.007Z,230
2016-05-31T10:07:16.509Z,230
2016-05-31T10:08:19.652Z,235
2016-05-31T10:09:13.248Z,235
2016-05-31T10:10:13.361Z,235
2016-05-31T10:11:13.176Z,220
2016-05-31T10:12:22.476Z,205
2016-05-31T10:13:13.728Z,165
2016-05-31T10:14:13.762Z,150
2016-05-31T10:15:15.998Z,160
2016-05-31T10:16:24.924Z,135
2016-05-31T10:17:13.083Z,125
2016-05-31T10:18:25.023Z,95
2016-05-31T10:19:12.963Z,75
2016-05-31T10:20:12.701Z,60
2016-05-31T10:21:15.719Z,110
2016-05-31T10:22:12.799Z,140
2016-05-31T10:23:16.568Z,150
2016-05-31T10:24:18.586Z,165
2016-05-31T10:25:15.713Z,175
2016-05-31T10:26:15.185Z,190
2016-05-31T10:27:12.422Z,200
2016-05-31T10:28:15.613Z,215
2016-05-31T10:29:15.536Z,220
2016-05-31T10:30:15.274Z,230
2016-05-31T10:31:11.933Z,220
2016-05-31T10:32:12.763Z,220
2016-05-31T10:33:15.172Z,220
2016-05-31T10:34:15.207Z,215
2016-05-31T10:35:21.084Z,215
2016-05-31T10:36:12.055Z,200
2016-05-31T10:37:12.152Z,195
2016-05-31T10:38:12.765Z,215
2016-05-31T10:39:11.923Z,215
2016-05-31T10:40:11.707Z,210
2016-05-31T10:41:14.851Z,225
2016-05-31T10:42:11.900Z,195
2016-05-31T10:43:11.637Z,210
2016-05-31T10:44:11.656Z,210
2016-05-31T10:45:17.626Z,210
2016-05-31T10:46:11.645Z,200
2016-05-31T10:47:15.335Z,180
2016-05-31T10:48:12.025Z,160
2016-05-31T10:49:14.716Z,155
2016-05-31T10:50:12.328Z,145
2016-05-31T10:51:14.659Z,130
2016-05-31T10:52:11.520Z,110
2016-05-31T10:53:15.304Z,75
2016-05-31T10:54:14.073Z,70
2016-05-31T10:55:23.466Z,60
2016-05-31T10:56:11.391Z,55
2016-05-31T10:57:14.519Z,45
2016-05-31T10:58:11.068Z,40
2016-05-31T10:59:14.242Z,30
2016-05-31T11:00:11.167Z,30
2016-05-31T11:01:14.560Z,35
2016-05-31T11:02:11.079Z,40
2016-05-31T11:03:13.847Z,45
2016-05-31T11:04:14.396Z,40
2016-05-31T11:05:13.758Z,60
2016-05-31T11:06:14.027Z,75
2016-05-31T11:07:14.123Z,75
2016-05-31T11:08:25.861Z,105
2016-05-31T11:09:13.598Z,130
2016-05-31T11:10:10.990Z,150
2016-05-31T11:11:11.040Z,145
2016-05-31T11:12:10.793Z,155
2016-05-31T11:13:10.967Z,170
2016-05-31T11:14:10.143Z,160
2016-05-31T11:15:13.739Z,170
2016-05-31T11:16:10.195Z,205
2016-05-31T11:17:10.432Z,235
2016-05-31T11:18:10.278Z,205
2016-05-31T11:19:10.484Z,195
2016-05-31T11:20:10.033Z,175
2016-05-31T11:21:13.270Z,200
2016-05-31T11:22:13.054Z,180
2016-05-31T11:23:16.917Z,150
2016-05-31T11:24:10.419Z,160
2016-05-31T11:25:15.922Z,115
2016-05-31T11:26:09.878Z,100
2016-05-31T11:27:12.646Z,125
2016-05-31T11:28:09.930Z,140
2016-05-31T11:29:09.698Z,135
2016-05-31T11:30:15.966Z,105
2016-05-31T11:31:09.750Z,90
2016-05-31T11:32:09.409Z,80
2016-05-31T11:33:09.491Z,95
2016-05-31T11:34:12.540Z,110
2016-05-31T11:35:09.464Z,100
2016-05-31T11:36:12.388Z,70
2016-05-31T11:37:09.235Z,45
2016-05-31T11:38:09.221Z,35
2016-05-31T11:39:10.287Z,30
2016-05-31T11:40:12.228Z,35
2016-05-31T11:41:12.027Z,40
2016-05-31T11:42:09.139Z,60
2016-05-31T11:43:09.111Z,65
2016-05-31T11:44:15.285Z,50
2016-05-31T11:45:09.023Z,45
2016-05-31T11:46:09.057Z,35
2016-05-31T11:47:17.793Z,35
2016-05-31T11:48:08.717Z,35
2016-05-31T11:49:08.830Z,40
2016-05-31T11:50:09.754Z,40
2016-05-31T11:51:11.648Z,35
2016-05-31T11:52:08.839Z,40
2016-05-31T11:53:08.747Z,40
2016-05-31T11:54:14.515Z,45
2016-05-31T11:55:08.596Z,45
2016-05-31T11:56:08.552Z,50
2016-05-31T11:57:08.383Z,60
2016-05-31T11:58:08.480Z,70
2016-05-31T11:59:11.403Z,80
2016-05-31T12:00:08.391Z,90
2016-05-31T12:01:08.174Z,95
2016-05-31T12:02:16.958Z,105
2016-05-31T12:03:08.244Z,115
2016-05-31T12:04:08.589Z,125
2016-05-31T12:05:08.670Z,140
2016-05-31T12:06:08.188Z,155
2016-05-31T12:07:07.893Z,165
2016-05-31T12:08:11.100Z,185
2016-05-31T12:09:11.291Z,190
2016-05-31T12:10:08.199Z,230
2016-05-31T12:11:08.311Z,240
2016-05-31T12:12:10.876Z,225
2016-05-31T12:13:11.551Z,230
2016-05-31T12:14:10.632Z,230
2016-05-31T12:15:07.946Z,225
2016-05-31T12:16:07.637Z,225
2016-05-31T12:17:09.327Z,225
2016-05-31T12:18:07.579Z,230
2016-05-31T12:19:07.551Z,245
2016-05-31T12:20:07.742Z,265
2016-05-31T12:21:07.651Z,280
2016-05-31T12:22:10.373Z,285
2016-05-31T12:23:11.047Z,280
2016-05-31T12:24:10.783Z,255
2016-05-31T12:25:07.958Z,225
2016-05-31T12:26:13.008Z,235
2016-05-31T12:27:16.354Z,260
2016-05-31T12:28:10.403Z,265
2016-05-31T12:29:07.075Z,215
2016-05-31T12:30:10.722Z,195
2016-05-31T12:31:10.177Z,190
2016-05-31T12:32:16.039Z,170
2016-05-31T12:33:12.901Z,190
2016-05-31T12:34:06.948Z,185
2016-05-31T12:35:13.032Z,175
2016-05-31T12:36:10.050Z,185
2016-05-31T12:37:09.975Z,165
2016-05-31T12:38:12.899Z,155
2016-05-31T12:39:07.008Z,165
2016-05-31T12:40:12.701Z,170
2016-05-31T12:41:06.545Z,165
2016-05-31T12:42:09.644Z,195
2016-05-31T12:43:12.726Z,250
2016-05-31T12:44:09.446Z,290
2016-05-31T12:45:15.418Z,310
2016-05-31T12:46:06.559Z,315
2016-05-31T12:47:06.154Z,315
2016-05-31T12:48:06.157Z,315
2016-05-31T12:49:10.335Z,310
2016-05-31T12:50:09.432Z,295
2016-05-31T12:51:06.385Z,280
2016-05-31T12:52:09.125Z,265
2016-05-31T12:53:09.517Z,245
2016-05-31T12:54:09.286Z,245
2016-05-31T12:55:06.286Z,255
2016-05-31T12:56:05.773Z,285
2016-05-31T12:57:05.807Z,290
2016-05-31T12:58:08.750Z,260
2016-05-31T12:59:05.859Z,285
2016-05-31T13:00:06.456Z,280
2016-05-31T13:01:05.817Z,260
2016-05-31T13:02:05.695Z,260
2016-05-31T13:03:09.170Z,255
2016-05-31T13:04:05.858Z,210
2016-05-31T13:05:17.660Z,210
2016-05-31T13:06:05.285Z,210
2016-05-31T13:07:17.556Z,220
2016-05-31T13:08:05.775Z,210
2016-05-31T13:09:08.058Z,185
2016-05-31T13:10:11.594Z,160
2016-05-31T13:11:05.485Z,145
2016-05-31T13:12:09.131Z,135
2016-05-31T13:13:11.227Z,120
2016-05-31T13:14:14.215Z,115
2016-05-31T13:15:08.137Z,105
2016-05-31T13:16:28.360Z,100
2016-05-31T13:17:04.814Z,100
2016-05-31T13:18:17.663Z,105
2016-05-31T13:19:05.132Z,110
2016-05-31T13:20:05.275Z,125
2016-05-31T13:21:14.203Z,145
2016-05-31T13:22:07.734Z,170
2016-05-31T13:23:04.987Z,210
2016-05-31T13:24:10.836Z,245
2016-05-31T13:25:07.804Z,265
2016-05-31T13:26:04.697Z,295
2016-05-31T13:27:04.763Z,325
2016-05-31T13:28:04.594Z,335
2016-05-31T13:29:07.408Z,340
2016-05-31T13:30:04.318Z,335
2016-05-31T13:31:04.852Z,350
2016-05-31T13:32:07.588Z,360
2016-05-31T13:33:04.420Z,345
2016-05-31T13:34:07.578Z,280
2016-05-31T13:35:04.581Z,220
2016-05-31T13:36:04.443Z,190
2016-05-31T13:37:04.758Z,230
2016-05-31T13:38:06.074Z,265
2016-05-31T13:39:04.513Z,275
2016-05-31T13:40:04.032Z,285
2016-05-31T13:41:07.160Z,300
2016-05-31T13:42:06.974Z,310
2016-05-31T13:43:06.869Z,305
2016-05-31T13:44:06.902Z,285
2016-05-31T13:45:03.827Z,260
2016-05-31T13:46:03.814Z,230
2016-05-31T13:47:03.785Z,215
2016-05-31T13:48:03.943Z,195
2016-05-31T13:49:03.696Z,175
2016-05-31T13:50:03.654Z,165
2016-05-31T13:51:07.234Z,150
2016-05-31T13:52:04.018Z,145
2016-05-31T13:53:04.739Z,140
2016-05-31T13:54:06.835Z,130
2016-05-31T13:55:03.479Z,125
2016-05-31T13:56:07.481Z,120
2016-05-31T13:57:03.422Z,115
2016-05-31T13:58:03.768Z,105
2016-05-31T13:59:03.333Z,100
2016-05-31T14:00:03.367Z,100
2016-05-31T14:01:06.244Z,90
2016-05-31T14:02:02.967Z,85
2016-05-31T14:03:06.203Z,80
2016-05-31T14:04:02.955Z,80
2016-05-31T14:05:06.209Z,80
2016-05-31T14:06:03.009Z,80
2016-05-31T14:07:02.792Z,75
2016-05-31T14:08:03.873Z,75
2016-05-31T14:09:03.266Z,70
2016-05-31T14:10:02.769Z,65
2016-05-31T14:11:02.740Z,65